createdAt,value
2023-05-11T00:01:22.466Z,12.55
2023-05-11T00:03:24.162Z,9.02
2023-05-11T00:05:26.036Z,12.18
2023-05-11T00:07:27.554Z,13.05
2023-05-11T00:09:29.046Z,10.98
2023-05-11T00:11:31.204Z,15.27
2023-05-11T00:13:32.793Z,10.65
2023-05-11T00:15:34.312Z,9.52
2023-05-11T00:17:35.915Z,14.65
2023-05-11T00:19:37.992Z,10.10
2023-05-11T00:21:39.641Z,15.88
2023-05-11T00:23:41.349Z,14.00
2023-05-11T00:25:43.179Z,8.43
2023-05-11T00:27:46.239Z,13.00
2023-05-11T00:29:47.815Z,10.23
2023-05-11T00:31:50.182Z,8.93
2023-05-11T00:33:52.015Z,13.27
2023-05-11T00:35:53.574Z,13.77
2023-05-11T00:37:55.179Z,6.82
2023-05-11T00:39:56.699Z,8.63
2023-05-11T00:41:58.184Z,9.80
2023-05-11T00:43:59.684Z,9.57
2023-05-11T00:46:03.228Z,8.25
2023-05-11T00:48:05.139Z,11.32
2023-05-11T00:50:07.457Z,12.75
2023-05-11T00:52:09.038Z,11.25
2023-05-11T00:54:15.440Z,9.48
2023-05-11T00:56:17.181Z,11.73
2023-05-11T00:58:18.801Z,11.15
2023-05-11T01:00:20.477Z,11.70
2023-05-11T01:02:22.362Z,12.18
2023-05-11T01:04:24.069Z,14.63
2023-05-11T01:06:46.628Z,13.65
2023-05-11T01:08:55.908Z,13.65
2023-05-11T01:11:21.524Z,11.15
2023-05-11T01:13:41.519Z,9.98
2023-05-11T01:15:52.956Z,12.90
2023-05-11T01:18:25.273Z,12.13
2023-05-11T01:20:30.097Z,19.65
2023-05-11T01:23:16.947Z,14.88
2023-05-11T01:25:32.920Z,13.38
2023-05-11T01:28:19.721Z,9.90
2023-05-11T01:30:45.586Z,8.13
2023-05-11T01:32:47.400Z,10.40
2023-05-11T01:34:59.808Z,12.23
2023-05-11T01:37:10.520Z,11.52
2023-05-11T01:39:14.077Z,11.43
2023-05-11T01:41:18.976Z,15.82
2023-05-11T01:43:25.682Z,13.30
2023-05-11T01:45:29.437Z,12.25
2023-05-11T01:47:32.012Z,14.88
2023-05-11T01:49:38.674Z,14.32
2023-05-11T01:51:42.285Z,16.02
2023-05-11T01:53:45.486Z,9.10
2023-05-11T01:55:48.767Z,11.18
2023-05-11T01:57:53.451Z,11.70
2023-05-11T01:59:56.996Z,12.60
2023-05-11T02:01:59.438Z,15.02
2023-05-11T02:04:04.098Z,12.80
2023-05-11T02:06:06.971Z,17.77
2023-05-11T02:08:09.226Z,15.23
2023-05-11T02:10:12.151Z,9.55
2023-05-11T02:12:15.637Z,11.32
2023-05-11T02:14:19.953Z,17.38
2023-05-11T02:16:24.050Z,15.93
2023-05-11T02:18:25.737Z,16.08
2023-05-11T02:20:27.440Z,15.43
2023-05-11T02:22:29.846Z,14.88
2023-05-11T02:24:33.316Z,21.48
2023-05-11T02:26:35.246Z,15.10
2023-05-11T02:28:37.090Z,17.33
2023-05-11T02:30:46.173Z,17.90
2023-05-11T02:32:51.561Z,24.13
2023-05-11T02:35:17.568Z,13.30
2023-05-11T02:37:24.309Z,13.95
2023-05-11T02:39:32.389Z,22.77
2023-05-11T02:41:41.799Z,15.88
2023-05-11T02:43:51.109Z,17.33
2023-05-11T02:45:57.734Z,17.83
2023-05-11T02:48:03.637Z,24.60
2023-05-11T02:50:07.092Z,20.58
2023-05-11T02:52:10.647Z,21.67
2023-05-11T02:54:13.327Z,20.10
2023-05-11T02:56:15.131Z,19.10
2023-05-11T02:58:18.084Z,16.13
2023-05-11T03:00:20.094Z,13.90
2023-05-11T03:02:22.327Z,14.80
2023-05-11T03:04:24.563Z,13.15
2023-05-11T03:06:26.121Z,14.18
2023-05-11T03:08:27.931Z,18.45
2023-05-11T03:10:29.781Z,15.07
2023-05-11T03:12:33.968Z,21.08
2023-05-11T03:14:36.938Z,14.95
2023-05-11T03:16:39.502Z,18.38
2023-05-11T03:18:42.083Z,18.33
2023-05-11T03:20:45.515Z,14.23
2023-05-11T03:22:47.359Z,16.08
2023-05-11T03:24:49.676Z,13.43
2023-05-11T03:26:54.369Z,15.50
2023-05-11T03:28:58.131Z,11.45
2023-05-11T03:30:59.726Z,13.93
2023-05-11T03:33:01.739Z,17.77
2023-05-11T03:35:03.509Z,13.18
2023-05-11T03:37:11.071Z,9.55
2023-05-11T03:39:13.189Z,12.70
2023-05-11T03:41:17.339Z,10.27
2023-05-11T03:43:20.177Z,12.85
2023-05-11T03:45:22.772Z,11.57
2023-05-11T03:47:26.517Z,15.50
2023-05-11T03:49:29.622Z,15.88
2023-05-11T03:51:32.865Z,13.38
2023-05-11T03:53:34.534Z,20.95
2023-05-11T03:55:36.076Z,17.08
2023-05-11T03:57:38.561Z,15.57
2023-05-11T03:59:40.197Z,23.63
2023-05-11T04:01:43.237Z,17.30
2023-05-11T04:03:52.664Z,11.85
2023-05-11T04:05:54.390Z,14.15
2023-05-11T04:07:55.943Z,12.18
2023-05-11T04:09:57.510Z,13.15
2023-05-11T04:11:59.559Z,12.98
2023-05-11T04:14:01.054Z,15.25
2023-05-11T04:16:02.914Z,8.85
2023-05-11T04:18:04.517Z,13.65
2023-05-11T04:20:06.820Z,9.30
2023-05-11T04:22:08.342Z,8.82
2023-05-11T04:24:10.112Z,5.65
2023-05-11T04:26:11.662Z,7.25
2023-05-11T04:28:13.175Z,9.07
2023-05-11T04:30:15.361Z,9.32
2023-05-11T04:32:17.297Z,9.88
2023-05-11T04:34:18.965Z,11.20
2023-05-11T04:36:22.284Z,7.20
2023-05-11T04:38:23.827Z,7.43
2023-05-11T04:40:26.733Z,6.85
2023-05-11T04:42:30.232Z,9.15
2023-05-11T04:44:31.716Z,5.88
2023-05-11T04:46:33.308Z,7.75
2023-05-11T04:48:34.838Z,11.68
2023-05-11T04:50:37.025Z,6.15
2023-05-11T04:52:38.548Z,9.63
2023-05-11T04:54:40.066Z,17.52
2023-05-11T04:56:41.568Z,8.02
2023-05-11T04:58:43.100Z,8.52
2023-05-11T05:00:44.724Z,11.02
2023-05-11T05:02:46.417Z,8.10
2023-05-11T05:04:47.978Z,7.30
2023-05-11T05:06:49.472Z,10.02
2023-05-11T05:08:51.014Z,8.38
2023-05-11T05:10:52.522Z,6.68
2023-05-11T05:12:54.417Z,7.85
2023-05-11T05:14:56.023Z,16.80
2023-05-11T05:16:57.595Z,10.32
2023-05-11T05:18:59.153Z,6.80
2023-05-11T05:21:01.070Z,7.65
2023-05-11T05:23:02.873Z,11.43
2023-05-11T05:25:04.714Z,5.65
2023-05-11T05:27:06.343Z,9.30
2023-05-11T05:29:07.941Z,8.25
2023-05-11T05:31:09.515Z,6.88
2023-05-11T05:33:11.152Z,11.30
2023-05-11T05:35:13.173Z,11.10
2023-05-11T05:37:14.813Z,9.77
2023-05-11T05:39:16.396Z,5.45
2023-05-11T05:41:17.922Z,7.82
2023-05-11T05:43:19.484Z,9.93
2023-05-11T05:45:21.119Z,8.40
2023-05-11T05:47:22.692Z,9.27
2023-05-11T05:49:24.912Z,10.93
2023-05-11T05:51:26.504Z,8.68
2023-05-11T05:53:28.077Z,7.43
2023-05-11T05:55:29.592Z,6.35
2023-05-11T05:57:31.354Z,11.00
2023-05-11T05:59:33.063Z,11.85
2023-05-11T06:01:35.521Z,7.40
2023-05-11T06:03:37.284Z,7.93
2023-05-11T06:05:38.848Z,6.30
2023-05-11T06:07:40.402Z,9.05
2023-05-11T06:09:41.955Z,3.75
2023-05-11T06:11:43.504Z,8.23
2023-05-11T06:13:45.069Z,7.25
2023-05-11T06:15:46.624Z,6.28
2023-05-11T06:17:48.139Z,6.20
2023-05-11T06:19:50.365Z,4.97
2023-05-11T06:21:51.868Z,4.38
2023-05-11T06:23:53.469Z,11.80
2023-05-11T06:25:55.112Z,6.05
2023-05-11T06:27:56.782Z,7.63
2023-05-11T06:29:58.488Z,9.68
2023-05-11T06:32:00.090Z,8.35
2023-05-11T06:34:01.727Z,8.20
2023-05-11T06:36:07.378Z,5.80
2023-05-11T06:38:08.968Z,8.15
2023-05-11T06:40:10.645Z,6.63
2023-05-11T06:42:12.413Z,4.85
2023-05-11T06:44:13.967Z,9.55
2023-05-11T06:46:17.690Z,4.95
2023-05-11T06:48:20.087Z,8.27
2023-05-11T06:50:22.158Z,4.32
2023-05-11T06:52:24.490Z,5.93
2023-05-11T06:54:26.032Z,5.88
2023-05-11T06:56:29.067Z,7.80
2023-05-11T06:58:30.673Z,7.68
2023-05-11T07:00:32.301Z,6.55
2023-05-11T07:02:33.934Z,6.30
2023-05-11T07:04:35.572Z,8.52
2023-05-11T07:06:37.170Z,7.63
2023-05-11T07:08:38.695Z,7.35
2023-05-11T07:10:41.705Z,6.50
2023-05-11T07:12:43.245Z,12.25
2023-05-11T07:14:44.813Z,7.60
2023-05-11T07:16:46.662Z,5.50
2023-05-11T07:18:48.333Z,6.03
2023-05-11T07:20:50.231Z,7.45
2023-05-11T07:22:51.769Z,5.75
2023-05-11T07:24:53.361Z,4.30
2023-05-11T07:26:55.830Z,8.35
2023-05-11T07:28:57.455Z,6.43
2023-05-11T07:30:59.011Z,7.40
2023-05-11T07:33:00.582Z,6.53
2023-05-11T07:35:02.181Z,8.88
2023-05-11T07:37:04.834Z,4.32
2023-05-11T07:39:06.382Z,7.85
2023-05-11T07:41:09.474Z,7.32
2023-05-11T07:43:12.735Z,5.53
2023-05-11T07:45:14.350Z,8.25
2023-05-11T07:47:17.391Z,5.60
2023-05-11T07:49:27.978Z,7.32
2023-05-11T07:51:37.418Z,4.18
2023-05-11T07:53:39.005Z,7.65
2023-05-11T07:55:40.627Z,6.90
2023-05-11T07:57:42.203Z,4.85
2023-05-11T07:59:43.753Z,8.80
2023-05-11T08:01:45.846Z,5.22
2023-05-11T08:03:47.657Z,10.88
2023-05-11T08:05:49.297Z,4.88
2023-05-11T08:07:50.861Z,6.45
2023-05-11T08:09:52.732Z,4.43
2023-05-11T08:11:56.487Z,12.77
2023-05-11T08:13:58.536Z,5.97
2023-05-11T08:16:00.227Z,5.75
2023-05-11T08:18:02.977Z,8.98
2023-05-11T08:20:06.727Z,5.72
2023-05-11T08:22:08.494Z,5.82
2023-05-11T08:24:10.572Z,5.47
2023-05-11T08:26:12.137Z,3.30
2023-05-11T08:28:13.951Z,3.80
2023-05-11T08:30:16.124Z,4.60
2023-05-11T08:32:17.803Z,8.85
2023-05-11T08:34:20.289Z,5.93
2023-05-11T08:36:22.121Z,9.38
2023-05-11T08:38:23.806Z,6.78
2023-05-11T08:40:27.675Z,11.48
2023-05-11T08:42:35.169Z,5.40
2023-05-11T08:44:39.363Z,8.25
2023-05-11T08:46:42.164Z,5.18
2023-05-11T08:48:44.438Z,7.18
2023-05-11T08:50:46.169Z,5.38
2023-05-11T08:52:48.322Z,4.60
2023-05-11T08:54:49.887Z,7.45
2023-05-11T08:56:51.858Z,4.53
2023-05-11T08:58:56.589Z,5.43
2023-05-11T09:00:59.220Z,10.85
2023-05-11T09:03:01.010Z,11.20
2023-05-11T09:05:04.500Z,8.80
2023-05-11T09:07:06.353Z,6.65
2023-05-11T09:09:08.590Z,4.50
2023-05-11T09:11:10.800Z,4.75
2023-05-11T09:13:12.379Z,6.05
2023-05-11T09:15:14.000Z,5.57
2023-05-11T09:17:15.696Z,6.10
2023-05-11T09:19:17.655Z,5.15
2023-05-11T09:21:24.898Z,3.33
2023-05-11T09:23:27.305Z,4.90
2023-05-11T09:25:33.132Z,4.20
2023-05-11T09:27:34.730Z,3.47
2023-05-11T09:29:36.318Z,8.00
2023-05-11T09:31:41.739Z,4.80
2023-05-11T09:33:43.337Z,3.63
2023-05-11T09:35:44.889Z,4.32
2023-05-11T09:38:04.932Z,3.53
2023-05-11T09:40:26.355Z,3.15
2023-05-11T09:42:30.159Z,3.67
2023-05-11T09:44:32.143Z,6.57
2023-05-11T09:46:33.730Z,3.95
2023-05-11T09:48:35.892Z,4.18
2023-05-11T09:50:37.580Z,4.50
2023-05-11T09:52:51.040Z,3.78
2023-05-11T09:54:52.749Z,3.33
2023-05-11T09:56:56.793Z,3.35
2023-05-11T09:58:59.364Z,4.05
2023-05-11T10:01:00.941Z,9.90
2023-05-11T10:03:08.505Z,3.38
2023-05-11T10:05:13.592Z,6.70
2023-05-11T10:07:25.034Z,4.30
2023-05-11T10:09:27.396Z,3.65
2023-05-11T10:11:29.010Z,3.03
2023-05-11T10:13:32.336Z,3.60
2023-05-11T10:15:35.324Z,4.82
2023-05-11T10:17:37.602Z,5.60
2023-05-11T10:19:39.563Z,2.53
2023-05-11T10:21:41.355Z,3.83
2023-05-11T10:23:43.125Z,3.97
2023-05-11T10:25:45.200Z,7.65
2023-05-11T10:27:47.904Z,3.85
2023-05-11T10:29:50.523Z,4.90
2023-05-11T10:31:53.408Z,3.05
2023-05-11T10:33:55.466Z,6.43
2023-05-11T10:35:57.750Z,8.77
2023-05-11T10:38:01.074Z,4.93
2023-05-11T10:40:04.597Z,3.65
2023-05-11T10:42:24.597Z,8.55
2023-05-11T10:44:54.348Z,3.65
2023-05-11T10:47:22.272Z,4.55
2023-05-11T10:49:52.132Z,8.13
2023-05-11T10:52:43.940Z,5.25
2023-05-11T10:55:00.467Z,5.07
2023-05-11T10:57:26.951Z,2.53
2023-05-11T10:59:56.604Z,5.38
2023-05-11T11:02:01.478Z,3.42
2023-05-11T11:04:07.917Z,4.68
2023-05-11T11:06:22.853Z,4.20
2023-05-11T11:08:24.452Z,3.85
2023-05-11T11:10:34.459Z,5.28
2023-05-11T11:12:36.239Z,5.70
2023-05-11T11:14:58.682Z,2.08
2023-05-11T11:17:15.676Z,2.50
2023-05-11T11:19:32.133Z,4.95
2023-05-11T11:21:43.050Z,3.30
2023-05-11T11:23:49.205Z,6.88
2023-05-11T11:25:55.624Z,2.17
2023-05-11T11:27:58.482Z,4.90
2023-05-11T11:30:22.179Z,7.55
2023-05-11T11:32:23.862Z,3.15
2023-05-11T11:34:28.140Z,6.32
2023-05-11T11:36:54.878Z,2.67
2023-05-11T11:39:03.833Z,3.42
2023-05-11T11:41:08.596Z,5.55
2023-05-11T11:43:21.712Z,2.75
2023-05-11T11:45:32.423Z,2.65
2023-05-11T11:47:34.015Z,6.07
2023-05-11T11:49:37.211Z,5.00
2023-05-11T11:51:40.534Z,2.95
2023-05-11T11:53:43.777Z,3.90
2023-05-11T11:55:50.300Z,7.75
2023-05-11T11:57:52.292Z,5.07
2023-05-11T11:59:54.481Z,4.93
2023-05-11T12:01:57.368Z,4.97
2023-05-11T12:04:05.202Z,3.30
2023-05-11T12:06:09.069Z,7.72
2023-05-11T12:08:12.895Z,3.20
2023-05-11T12:10:15.481Z,3.90
2023-05-11T12:12:17.853Z,2.30
2023-05-11T12:14:20.447Z,4.40
2023-05-11T12:16:22.297Z,2.58
2023-05-11T12:18:23.853Z,4.55
2023-05-11T12:20:26.166Z,1.83
2023-05-11T12:22:27.747Z,4.13
2023-05-11T12:24:29.578Z,3.10
2023-05-11T12:26:32.966Z,4.63
2023-05-11T12:28:34.589Z,3.72
2023-05-11T12:30:37.762Z,2.25
2023-05-11T12:32:40.548Z,2.38
2023-05-11T12:34:42.203Z,4.28
2023-05-11T12:36:45.601Z,2.53
2023-05-11T12:38:48.707Z,2.63
2023-05-11T12:40:52.284Z,5.53
2023-05-11T12:42:58.464Z,2.70
2023-05-11T12:45:00.242Z,4.05
2023-05-11T12:47:01.964Z,5.35
2023-05-11T12:49:03.696Z,2.88
2023-05-11T12:51:05.370Z,2.90
2023-05-11T12:53:14.587Z,3.58
2023-05-11T12:55:28.012Z,4.20
2023-05-11T12:57:31.285Z,2.88
2023-05-11T12:59:37.699Z,3.58
2023-05-11T13:01:39.341Z,2.22
2023-05-11T13:03:45.860Z,7.82
2023-05-11T13:05:47.898Z,3.63
2023-05-11T13:07:57.834Z,4.63
2023-05-11T13:12:18.983Z,3.50
2023-05-11T13:14:20.601Z,3.05
2023-05-11T13:16:29.828Z,5.28
2023-05-11T13:18:31.432Z,7.72
2023-05-11T13:20:34.038Z,4.95
2023-05-11T13:22:36.192Z,2.83
2023-05-11T13:24:37.840Z,4.78
2023-05-11T13:26:39.383Z,4.18
2023-05-11T13:28:40.922Z,3.88
2023-05-11T13:30:43.223Z,4.90
2023-05-11T13:32:44.781Z,3.58
2023-05-11T13:34:46.583Z,4.03
2023-05-11T13:36:48.536Z,11.48
2023-05-11T13:38:50.096Z,5.70
2023-05-11T13:40:51.715Z,7.25
2023-05-11T13:42:53.435Z,5.15
2023-05-11T13:44:55.224Z,4.32
2023-05-11T13:46:56.895Z,4.10
2023-05-11T13:49:00.422Z,6.47
2023-05-11T13:51:02.057Z,4.88
2023-05-11T13:53:03.694Z,9.57
2023-05-11T13:55:06.024Z,3.85
2023-05-11T13:57:07.683Z,5.65
2023-05-11T13:59:09.520Z,4.38
2023-05-11T14:01:11.186Z,5.13
2023-05-11T14:03:13.073Z,5.30
2023-05-11T14:05:14.874Z,14.20
2023-05-11T14:07:16.417Z,8.30
2023-05-11T14:09:18.205Z,4.18
2023-05-11T14:11:21.076Z,4.55
2023-05-11T14:13:22.901Z,5.50
2023-05-11T14:15:24.483Z,3.20
2023-05-11T14:17:26.078Z,4.57
2023-05-11T14:19:27.831Z,3.90
2023-05-11T14:21:29.436Z,4.43
2023-05-11T14:23:31.130Z,2.60
2023-05-11T14:25:33.209Z,5.53
2023-05-11T14:27:34.757Z,3.95
2023-05-11T14:29:39.556Z,5.20
2023-05-11T14:31:42.684Z,7.00
2023-05-11T14:33:44.258Z,4.85
2023-05-11T14:35:48.001Z,4.47
2023-05-11T14:37:49.567Z,4.95
2023-05-11T14:39:51.255Z,2.40
2023-05-11T14:41:52.849Z,3.20
2023-05-11T14:43:54.467Z,10.20
2023-05-11T14:45:56.084Z,6.82
2023-05-11T14:47:57.738Z,4.20
2023-05-11T14:49:59.339Z,4.18
2023-05-11T14:52:00.884Z,4.38
2023-05-11T14:54:02.446Z,7.75
2023-05-11T14:56:04.207Z,6.47
2023-05-11T14:58:09.069Z,3.60
2023-05-11T15:00:11.502Z,5.35
2023-05-11T15:02:13.075Z,5.93
2023-05-11T15:04:16.659Z,6.70
2023-05-11T15:06:22.332Z,3.72
2023-05-11T15:08:30.065Z,2.78
2023-05-11T15:10:32.719Z,2.60
2023-05-11T15:12:34.247Z,3.78
2023-05-11T15:14:35.883Z,4.40
2023-05-11T15:16:38.217Z,3.22
2023-05-11T15:18:42.209Z,3.38
2023-05-11T15:20:44.732Z,5.00
2023-05-11T15:22:46.356Z,3.03
2023-05-11T15:24:47.984Z,4.32
2023-05-11T15:26:49.531Z,3.47
2023-05-11T15:28:51.128Z,10.30
2023-05-11T15:30:52.691Z,5.60
2023-05-11T15:32:54.387Z,12.48
2023-05-11T15:34:59.900Z,5.00
2023-05-11T15:37:01.829Z,8.75
2023-05-11T15:39:03.490Z,10.07
2023-05-11T15:41:05.418Z,6.13
2023-05-11T15:43:07.338Z,5.40
2023-05-11T15:45:09.005Z,3.55
2023-05-11T15:47:10.563Z,4.13
2023-05-11T15:49:13.555Z,8.68
2023-05-11T15:51:15.170Z,9.93
2023-05-11T15:53:16.762Z,9.18
2023-05-11T15:55:18.353Z,8.13
2023-05-11T15:57:19.868Z,6.75
2023-05-11T15:59:21.375Z,6.53
2023-05-11T16:01:24.231Z,8.18
2023-05-11T16:03:26.236Z,5.57
2023-05-11T16:05:29.022Z,14.15
2023-05-11T16:07:30.589Z,7.70
2023-05-11T16:09:32.250Z,9.18
2023-05-11T16:11:33.857Z,6.25
2023-05-11T16:13:35.485Z,35.25
2023-05-11T16:15:37.004Z,10.63
2023-05-11T16:17:38.673Z,5.43
2023-05-11T16:19:40.367Z,5.47
2023-05-11T16:21:43.675Z,9.80
2023-05-11T16:23:46.059Z,8.35
2023-05-11T16:25:47.896Z,11.73
2023-05-11T16:27:49.724Z,8.60
2023-05-11T16:29:52.378Z,13.35
2023-05-11T16:31:54.023Z,8.00
2023-05-11T16:33:55.643Z,5.50
2023-05-11T16:35:57.265Z,6.60
2023-05-11T16:37:59.825Z,7.93
2023-05-11T16:40:02.042Z,5.85
2023-05-11T16:42:03.796Z,10.80
2023-05-11T16:44:05.419Z,7.45
2023-05-11T16:46:06.993Z,8.65
2023-05-11T16:48:08.639Z,63.33
2023-05-11T16:50:13.805Z,37.10
2023-05-11T16:52:17.452Z,21.42
2023-05-11T16:54:19.471Z,27.38
2023-05-11T16:56:21.364Z,45.20
2023-05-11T16:58:24.099Z,10.75
2023-05-11T17:00:26.108Z,6.63
2023-05-11T17:02:27.724Z,18.13
2023-05-11T17:04:29.324Z,7.95
2023-05-11T17:06:31.612Z,19.23
2023-05-11T17:08:34.276Z,6.88
2023-05-11T17:10:35.863Z,7.53
2023-05-11T17:12:37.502Z,6.97
2023-05-11T17:14:39.031Z,24.98
2023-05-11T17:16:41.020Z,10.13
2023-05-11T17:18:42.725Z,11.23
2023-05-11T17:20:44.279Z,6.72
2023-05-11T17:22:45.787Z,5.75
2023-05-11T17:24:47.330Z,8.73
2023-05-11T17:26:48.958Z,6.07
2023-05-11T17:28:50.985Z,3.95
2023-05-11T17:30:52.834Z,6.03
2023-05-11T17:32:54.782Z,6.25
2023-05-11T17:34:56.517Z,6.40
2023-05-11T17:36:58.572Z,10.13
2023-05-11T17:39:01.336Z,11.05
2023-05-11T17:41:05.921Z,48.38
2023-05-11T17:43:07.518Z,24.55
2023-05-11T17:45:09.558Z,17.90
2023-05-11T17:47:11.096Z,11.13
2023-05-11T17:49:12.611Z,9.27
2023-05-11T17:51:14.243Z,8.35
2023-05-11T17:53:16.073Z,12.45
2023-05-11T17:55:18.042Z,14.48
2023-05-11T17:57:20.365Z,7.13
2023-05-11T17:59:22.024Z,12.75
2023-05-11T18:01:23.597Z,12.50
2023-05-11T18:03:25.291Z,23.40
2023-05-11T18:05:40.413Z,14.88
2023-05-11T18:07:49.401Z,11.25
2023-05-11T18:09:50.916Z,11.90
2023-05-11T18:11:52.422Z,11.13
2023-05-11T18:13:54.034Z,20.90
2023-05-11T18:15:59.690Z,18.00
2023-05-11T18:18:02.266Z,13.55
2023-05-11T18:20:05.086Z,17.40
2023-05-11T18:22:06.895Z,18.02
2023-05-11T18:24:09.602Z,11.65
2023-05-11T18:26:11.324Z,15.98
2023-05-11T18:28:12.880Z,18.67
2023-05-11T18:30:14.721Z,12.93
2023-05-11T18:32:17.772Z,8.93
2023-05-11T18:34:19.300Z,12.18
2023-05-11T18:36:20.897Z,8.90
2023-05-11T18:38:22.488Z,14.95
2023-05-11T18:40:24.000Z,18.30
2023-05-11T18:42:25.570Z,13.85
2023-05-11T18:44:27.830Z,9.65
2023-05-11T18:46:29.424Z,13.13
2023-05-11T18:48:30.966Z,13.93
2023-05-11T18:50:32.550Z,9.90
2023-05-11T18:52:34.961Z,16.05
2023-05-11T18:54:36.682Z,15.32
2023-05-11T18:56:38.512Z,11.30
2023-05-11T18:58:40.262Z,10.20
2023-05-11T19:00:41.776Z,13.80
2023-05-11T19:02:43.918Z,13.45
2023-05-11T19:04:45.710Z,9.60
2023-05-11T19:06:47.323Z,7.05
2023-05-11T19:08:50.908Z,13.15
2023-05-11T19:10:52.480Z,9.63
2023-05-11T19:12:54.007Z,9.20
2023-05-11T19:14:56.283Z,13.02
2023-05-11T19:16:57.802Z,10.52
2023-05-11T19:18:59.678Z,8.38
2023-05-11T19:21:02.962Z,10.82
2023-05-11T19:23:04.746Z,10.80
2023-05-11T19:25:07.358Z,10.13
2023-05-11T19:27:08.986Z,10.75
2023-05-11T19:29:12.189Z,14.95
2023-05-11T19:31:13.910Z,9.32
2023-05-11T19:33:15.515Z,9.73
2023-05-11T19:35:18.397Z,8.95
2023-05-11T19:37:20.166Z,17.85
2023-05-11T19:39:21.821Z,15.38
2023-05-11T19:41:23.290Z,11.95
2023-05-11T19:43:24.955Z,9.27
2023-05-11T19:45:26.481Z,16.02
2023-05-11T19:47:28.610Z,28.55
2023-05-11T19:49:30.231Z,20.17
2023-05-11T19:51:32.051Z,20.38
2023-05-11T19:53:33.669Z,18.70
2023-05-11T19:55:35.311Z,14.85
2023-05-11T19:57:37.753Z,21.92
2023-05-11T19:59:39.259Z,23.27
2023-05-11T20:01:40.852Z,19.42
2023-05-11T20:03:42.601Z,18.63
2023-05-11T20:05:44.349Z,20.77
2023-05-11T20:07:45.947Z,15.65
2023-05-11T20:09:47.444Z,16.92
2023-05-11T20:11:49.004Z,13.80
2023-05-11T20:13:51.145Z,15.35
2023-05-11T20:15:52.719Z,15.05
2023-05-11T20:17:54.378Z,14.27
2023-05-11T20:19:56.357Z,14.73
2023-05-11T20:21:58.569Z,12.48
2023-05-11T20:24:00.234Z,14.45
2023-05-11T20:26:01.750Z,14.82
2023-05-11T20:28:03.609Z,19.50
2023-05-11T20:30:06.225Z,17.15
2023-05-11T20:32:08.113Z,18.45
2023-05-11T20:34:09.793Z,15.23
2023-05-11T20:36:11.345Z,16.60
2023-05-11T20:38:13.053Z,15.38
2023-05-11T20:40:14.771Z,22.23
2023-05-11T20:42:16.374Z,19.42
2023-05-11T20:44:18.458Z,14.43
2023-05-11T20:46:20.693Z,27.20
2023-05-11T20:48:35.912Z,15.10
2023-05-11T20:50:41.065Z,52.92
2023-05-11T20:52:42.644Z,42.10
2023-05-11T20:54:44.677Z,41.15
2023-05-11T20:56:46.320Z,55.55
2023-05-11T20:58:47.965Z,22.02
2023-05-11T21:00:49.490Z,21.05
2023-05-11T21:02:51.112Z,18.63
2023-05-11T21:04:53.216Z,22.92
2023-05-11T21:06:55.050Z,25.80
2023-05-11T21:08:56.627Z,19.55
2023-05-11T21:10:58.201Z,25.60
2023-05-11T21:13:01.479Z,21.85
2023-05-11T21:15:03.244Z,23.17
2023-05-11T21:17:04.966Z,22.65
2023-05-11T21:19:07.607Z,18.13
2023-05-11T21:21:09.738Z,23.30
2023-05-11T21:23:11.323Z,20.23
2023-05-11T21:25:12.995Z,18.55
2023-05-11T21:27:15.082Z,14.18
2023-05-11T21:29:16.660Z,15.30
2023-05-11T21:31:18.251Z,19.30
2023-05-11T21:33:20.683Z,14.75
2023-05-11T21:35:22.345Z,17.00
2023-05-11T21:37:23.920Z,17.52
2023-05-11T21:39:25.711Z,13.75
2023-05-11T21:41:27.315Z,17.90
2023-05-11T21:43:29.236Z,15.05
2023-05-11T21:45:30.723Z,14.70
2023-05-11T21:47:32.802Z,18.38
2023-05-11T21:49:36.440Z,16.13
2023-05-11T21:51:38.396Z,13.93
2023-05-11T21:53:40.546Z,19.52
2023-05-11T21:55:42.027Z,26.30
2023-05-11T21:57:43.674Z,26.23
2023-05-11T21:59:45.190Z,21.38
2023-05-11T22:01:49.175Z,17.98
2023-05-11T22:03:50.956Z,11.88
2023-05-11T22:05:52.588Z,14.98
2023-05-11T22:07:57.878Z,14.77
2023-05-11T22:10:09.294Z,14.35
2023-05-11T22:12:10.810Z,21.58
2023-05-11T22:14:12.298Z,13.48
2023-05-11T22:16:14.097Z,12.48
2023-05-11T22:18:15.815Z,21.30
2023-05-11T22:20:18.074Z,13.50
2023-05-11T22:22:19.871Z,10.23
2023-05-11T22:24:21.788Z,10.90
2023-05-11T22:26:23.337Z,18.30
2023-05-11T22:28:24.868Z,13.32
2023-05-11T22:30:26.431Z,12.90
2023-05-11T22:32:28.186Z,15.73
2023-05-11T22:34:29.696Z,11.93
2023-05-11T22:36:31.697Z,12.88
2023-05-11T22:38:34.295Z,12.90
2023-05-11T22:40:35.950Z,17.77
2023-05-11T22:42:38.011Z,17.30
2023-05-11T22:44:40.403Z,14.57
2023-05-11T22:46:41.897Z,13.18
2023-05-11T22:48:43.435Z,14.10
2023-05-11T22:50:47.499Z,8.95
2023-05-11T22:52:49.066Z,13.43
2023-05-11T22:54:55.177Z,20.83
2023-05-11T22:56:57.393Z,18.08
2023-05-11T22:59:01.862Z,12.05
2023-05-11T23:01:03.874Z,14.70
2023-05-11T23:03:05.616Z,15.65
2023-05-11T23:05:07.645Z,13.98
2023-05-11T23:07:12.189Z,8.05
2023-05-11T23:09:13.738Z,11.93
2023-05-11T23:11:15.263Z,14.35
2023-05-11T23:13:17.615Z,10.60
2023-05-11T23:15:19.420Z,12.57
2023-05-11T23:17:21.021Z,13.48
2023-05-11T23:19:22.703Z,10.77
2023-05-11T23:21:24.218Z,10.27
2023-05-11T23:23:26.290Z,9.57
2023-05-11T23:25:27.888Z,14.07
2023-05-11T23:27:29.456Z,11.80
2023-05-11T23:29:31.097Z,10.85
2023-05-11T23:31:34.200Z,9.65
2023-05-11T23:33:36.177Z,11.32
2023-05-11T23:35:38.215Z,10.32
2023-05-11T23:37:39.865Z,11.60
2023-05-11T23:39:41.416Z,9.07
2023-05-11T23:41:42.911Z,8.88
2023-05-11T23:43:44.424Z,14.18
2023-05-11T23:45:45.928Z,7.93
2023-05-11T23:47:47.517Z,9.48
2023-05-11T23:49:49.311Z,12.90
2023-05-11T23:51:50.898Z,13.90
2023-05-11T23:53:52.428Z,11.48
2023-05-11T23:55:53.974Z,9.35
2023-05-11T23:57:57.135Z,11.40
